WAJJ/DJJ METAR and TAF weather

Enter ICAO airport designator
Station Type Date Time Source
WAJJ METAR 2021/07/29 03:30 UTC NOAA

WAJJ 290330Z 15009KT 9999 SCT013 33/23 Q1009 NOSIG


Station Type Date Time Source
WAJJ Decoded METAR 2021/07/29 03:30 UTC NOAA

Jayapura / Sentani, Indonesia (WAJJ) 02-34S 140-29E 99M
Jul 28, 2021 - 11:30 PM EDT / 2021.07.29 0330 UTC
Wind: from the SSE (150 degrees) at 10 MPH (9 KT):0
Visibility: greater than 7 mile(s):0
Sky conditions: partly cloudy
Temperature: 91 F (33 C)
Heat index: 99.1 F (37.3 C):1
Dew Point: 73 F (23 C)
Relative Humidity: 55%
Pressure (altimeter): 29.80 in. Hg (1009 hPa)
ob: WAJJ 290330Z 15009KT 9999 SCT013 33/23 Q1009 NOSIG
cycle: 3

Station Type Date Time Source
WAJJ TAF 2013/03/11 12:00 UTC NOAA

TAF WAJJ 111100Z 1112/1212 29006KT 5000 HZ SCT016
TEMPO 1113/1121 4000 RA FEW014CB
BECMG 1200/1202 28012KT 9999
TEMPO 1207/1212 6000 RA FEW014CB

Example: see airport list